Магнитогорск, Россия

05 03, 2015 09:03 YEKT (GMT +0500)
Magnitogorsk | Change Station
CLOSE
Current Station
Аэропорт
Location: Magnitogorsk,
Высота над уровнем моря: 1430 ft
Ближайшие Погодные Станции

В.н.у.м. 1430 ft 53.39 °N, 58.76 °E | Updated 33 minutes ago

Scattered Clouds
Переменная Облачность
5 °F
Ощущается Как -7 °F
С
7
Ветер переменчевый Ветер от С-В

Сегодня
Высокий -- | Низкий -- °F
--% Вероятн. осадков
Вчера
Высокий -- | Низкий -- °F
Precip. -- дюймов
7:43 AM 6:48 PM
Полнолуние, 100% visible
Давление 30.18 дюймов
Видимость 6.2 милиь
Облачность Переменная Облачность 10000 ft
Температура с учетом ветра -7 °F
Точка Росы 1 °F
Влажность воздуха 85%
Дождь 0.00 дюймов
Глубина снега Нет в наличии.
УФ 0 из 12
Пыльца Нет в наличии.
Качество воздуха Нет в наличии.
Flu Activity Нет в наличии.
METAR USCM 050330Z 04003MPS 9999 SCT100 M15/M17 Q1022 NOSIG 01090060 RMK QFE727

More Conditions Fewer Conditions

Давление 30.18 дюймов
Видимость 6.2 милиь
Облачность Переменная Облачность 10000 ft
Температура с учетом ветра -7 °F
Точка Росы 1 °F
Влажность воздуха 85%
Дождь 0.00 дюймов
Глубина снега Нет в наличии.
УФ 0 из 12
Пыльца Нет в наличии.
Качество воздуха Нет в наличии.
Flu Activity Нет в наличии.
METAR USCM 050330Z 04003MPS 9999 SCT100 M15/M17 Q1022 NOSIG 01090060 RMK QFE727

More Conditions Fewer Conditions

10-Day Weather Forecast

Almanac

Астрономические явления

Mar. 05, 2015 Восход Закат
Настоящее время
Гражданские сумерки
Навигационные сумерки
Астрономические сумерки
Луна
Длительность светового времени
Продолжительность Дня
Tomorrow will be .
, % of the Moon is Illuminated

Сегодняшние Экстремальные Показания

Country Highs Country Lows

Community

WunderPhotos

Upload Photos

1,802,667 фотографии загружены!

WunderBlogs® & News

Nearby

Качество воздуха

  Качество воздуха Индекс AQ Загрязнитель
Not available.

Глубина Снега

Station Depth Высота над уровнем моря

Сейсмическая активность

Город Distance Mag. Time & Date
Minimum magnitude displayed is 2.5.

Температура Прибрежных Вод

Место Температура

Ближайшие Погодные Станции